sensor_id;sensor_type;location;lat;lon;timestamp;temperature;humidity
74809;DHT22;63338;39.544;2.596;2023-11-21T00:01:59;16.20;89.70
74809;DHT22;63338;39.544;2.596;2023-11-21T00:04:25;16.10;90.00
74809;DHT22;63338;39.544;2.596;2023-11-21T00:06:54;16.10;90.10
74809;DHT22;63338;39.544;2.596;2023-11-21T00:09:20;16.10;90.00
74809;DHT22;63338;39.544;2.596;2023-11-21T00:11:46;16.00;89.90
74809;DHT22;63338;39.544;2.596;2023-11-21T00:14:12;16.10;89.90
74809;DHT22;63338;39.544;2.596;2023-11-21T00:16:41;16.10;89.80
74809;DHT22;63338;39.544;2.596;2023-11-21T00:19:07;16.10;89.70
74809;DHT22;63338;39.544;2.596;2023-11-21T00:21:33;16.10;89.60
74809;DHT22;63338;39.544;2.596;2023-11-21T00:23:59;16.00;89.60
74809;DHT22;63338;39.544;2.596;2023-11-21T00:26:25;16.10;89.50
74809;DHT22;63338;39.544;2.596;2023-11-21T00:28:51;16.20;89.30
74809;DHT22;63338;39.544;2.596;2023-11-21T00:31:17;16.20;89.00
74809;DHT22;63338;39.544;2.596;2023-11-21T00:33:43;16.30;89.20
74809;DHT22;63338;39.544;2.596;2023-11-21T00:36:09;16.30;89.00
74809;DHT22;63338;39.544;2.596;2023-11-21T00:38:36;16.40;88.90
74809;DHT22;63338;39.544;2.596;2023-11-21T00:41:06;16.50;88.90
74809;DHT22;63338;39.544;2.596;2023-11-21T00:43:32;16.50;88.80
74809;DHT22;63338;39.544;2.596;2023-11-21T00:45:59;16.50;88.80
74809;DHT22;63338;39.544;2.596;2023-11-21T00:48:25;16.50;88.70
74809;DHT22;63338;39.544;2.596;2023-11-21T00:50:51;16.60;88.70
74809;DHT22;63338;39.544;2.596;2023-11-21T00:53:17;16.60;88.70
74809;DHT22;63338;39.544;2.596;2023-11-21T00:55:43;16.60;88.80
74809;DHT22;63338;39.544;2.596;2023-11-21T00:58:10;16.50;88.70
74809;DHT22;63338;39.544;2.596;2023-11-21T01:00:36;16.60;88.70
74809;DHT22;63338;39.544;2.596;2023-11-21T01:03:05;16.60;88.70
74809;DHT22;63338;39.544;2.596;2023-11-21T01:05:33;16.60;88.70
74809;DHT22;63338;39.544;2.596;2023-11-21T01:08:00;16.60;88.60
74809;DHT22;63338;39.544;2.596;2023-11-21T01:10:26;16.60;88.60
74809;DHT22;63338;39.544;2.596;2023-11-21T01:12:52;16.60;88.50
74809;DHT22;63338;39.544;2.596;2023-11-21T01:15:18;16.50;88.70
74809;DHT22;63338;39.544;2.596;2023-11-21T01:17:44;16.40;88.70
74809;DHT22;63338;39.544;2.596;2023-11-21T01:20:10;16.30;88.70
74809;DHT22;63338;39.544;2.596;2023-11-21T01:22:38;16.30;88.70
74809;DHT22;63338;39.544;2.596;2023-11-21T01:25:05;16.30;88.90
74809;DHT22;63338;39.544;2.596;2023-11-21T01:27:36;16.20;89.00
74809;DHT22;63338;39.544;2.596;2023-11-21T01:30:03;16.10;89.10
74809;DHT22;63338;39.544;2.596;2023-11-21T01:32:29;16.20;89.20
74809;DHT22;63338;39.544;2.596;2023-11-21T01:34:55;16.10;89.10
74809;DHT22;63338;39.544;2.596;2023-11-21T01:37:21;16.10;89.20
74809;DHT22;63338;39.544;2.596;2023-11-21T01:39:48;16.00;89.10
74809;DHT22;63338;39.544;2.596;2023-11-21T01:42:14;16.00;89.10
74809;DHT22;63338;39.544;2.596;2023-11-21T01:44:40;16.00;89.30
74809;DHT22;63338;39.544;2.596;2023-11-21T01:47:08;16.00;89.10
74809;DHT22;63338;39.544;2.596;2023-11-21T01:49:35;16.00;89.20
74809;DHT22;63338;39.544;2.596;2023-11-21T01:52:02;16.00;89.10
74809;DHT22;63338;39.544;2.596;2023-11-21T01:54:30;16.00;89.30
74809;DHT22;63338;39.544;2.596;2023-11-21T01:57:00;15.90;89.20
74809;DHT22;63338;39.544;2.596;2023-11-21T01:59:38;15.90;89.30
74809;DHT22;63338;39.544;2.596;2023-11-21T02:02:08;15.90;89.20
74809;DHT22;63338;39.544;2.596;2023-11-21T02:04:35;15.80;89.10
74809;DHT22;63338;39.544;2.596;2023-11-21T02:07:05;15.70;89.10
74809;DHT22;63338;39.544;2.596;2023-11-21T02:09:31;15.70;89.20
74809;DHT22;63338;39.544;2.596;2023-11-21T02:11:59;15.70;89.30
74809;DHT22;63338;39.544;2.596;2023-11-21T02:14:28;15.60;89.10
74809;DHT22;63338;39.544;2.596;2023-11-21T02:16:55;15.60;89.30
74809;DHT22;63338;39.544;2.596;2023-11-21T02:19:23;15.60;89.30
74809;DHT22;63338;39.544;2.596;2023-11-21T02:21:54;15.50;89.40
74809;DHT22;63338;39.544;2.596;2023-11-21T02:24:21;15.60;89.30
74809;DHT22;63338;39.544;2.596;2023-11-21T02:26:51;15.50;89.40
74809;DHT22;63338;39.544;2.596;2023-11-21T02:29:18;15.60;89.30
74809;DHT22;63338;39.544;2.596;2023-11-21T02:31:50;15.50;89.40
74809;DHT22;63338;39.544;2.596;2023-11-21T02:34:18;15.50;89.50
74809;DHT22;63338;39.544;2.596;2023-11-21T02:36:44;15.60;89.20
74809;DHT22;63338;39.544;2.596;2023-11-21T02:39:10;15.50;89.20
74809;DHT22;63338;39.544;2.596;2023-11-21T02:41:40;15.50;89.00
74809;DHT22;63338;39.544;2.596;2023-11-21T02:44:06;15.50;88.90
74809;DHT22;63338;39.544;2.596;2023-11-21T02:46:36;15.50;88.80
74809;DHT22;63338;39.544;2.596;2023-11-21T02:49:03;15.40;90.10
74809;DHT22;63338;39.544;2.596;2023-11-21T02:51:30;15.40;90.10
74809;DHT22;63338;39.544;2.596;2023-11-21T02:53:56;15.30;90.20
74809;DHT22;63338;39.544;2.596;2023-11-21T02:56:28;15.30;90.10
74809;DHT22;63338;39.544;2.596;2023-11-21T02:58:58;15.20;90.10
74809;DHT22;63338;39.544;2.596;2023-11-21T03:01:25;15.10;90.10
74809;DHT22;63338;39.544;2.596;2023-11-21T03:03:51;15.10;90.00
74809;DHT22;63338;39.544;2.596;2023-11-21T03:06:21;15.00;90.10
74809;DHT22;63338;39.544;2.596;2023-11-21T03:08:47;15.00;90.20
74809;DHT22;63338;39.544;2.596;2023-11-21T03:11:14;14.90;90.20
74809;DHT22;63338;39.544;2.596;2023-11-21T03:13:41;15.00;90.20
74809;DHT22;63338;39.544;2.596;2023-11-21T03:16:11;14.90;90.30
74809;DHT22;63338;39.544;2.596;2023-11-21T03:18:38;15.00;90.30
74809;DHT22;63338;39.544;2.596;2023-11-21T03:21:06;15.00;90.20
74809;DHT22;63338;39.544;2.596;2023-11-21T03:23:36;15.00;90.20
74809;DHT22;63338;39.544;2.596;2023-11-21T03:26:03;15.00;90.00
74809;DHT22;63338;39.544;2.596;2023-11-21T03:28:29;15.10;90.10
74809;DHT22;63338;39.544;2.596;2023-11-21T03:30:56;15.00;89.90
74809;DHT22;63338;39.544;2.596;2023-11-21T03:33:22;14.90;89.70
74809;DHT22;63338;39.544;2.596;2023-11-21T03:35:48;15.00;89.80
74809;DHT22;63338;39.544;2.596;2023-11-21T03:38:15;15.00;89.80
74809;DHT22;63338;39.544;2.596;2023-11-21T03:40:42;14.90;89.50
74809;DHT22;63338;39.544;2.596;2023-11-21T03:43:08;14.90;89.60
74809;DHT22;63338;39.544;2.596;2023-11-21T03:45:35;14.80;89.70
74809;DHT22;63338;39.544;2.596;2023-11-21T03:48:01;14.80;89.70
74809;DHT22;63338;39.544;2.596;2023-11-21T03:50:30;14.80;89.70
74809;DHT22;63338;39.544;2.596;2023-11-21T03:52:56;14.70;89.70
74809;DHT22;63338;39.544;2.596;2023-11-21T03:55:22;14.80;89.80
74809;DHT22;63338;39.544;2.596;2023-11-21T03:57:49;14.70;89.60
74809;DHT22;63338;39.544;2.596;2023-11-21T04:00:16;14.70;89.70
74809;DHT22;63338;39.544;2.596;2023-11-21T04:02:42;14.70;89.70
74809;DHT22;63338;39.544;2.596;2023-11-21T04:05:09;14.70;89.60
74809;DHT22;63338;39.544;2.596;2023-11-21T04:07:35;14.70;89.60
74809;DHT22;63338;39.544;2.596;2023-11-21T04:10:03;14.70;89.30
74809;DHT22;63338;39.544;2.596;2023-11-21T04:12:29;14.70;89.20
74809;DHT22;63338;39.544;2.596;2023-11-21T04:14:55;14.70;89.30
74809;DHT22;63338;39.544;2.596;2023-11-21T04:17:21;14.70;89.30
74809;DHT22;63338;39.544;2.596;2023-11-21T04:19:47;14.70;89.10
74809;DHT22;63338;39.544;2.596;2023-11-21T04:22:13;14.60;89.20
74809;DHT22;63338;39.544;2.596;2023-11-21T04:24:39;14.80;88.70
74809;DHT22;63338;39.544;2.596;2023-11-21T04:27:05;14.80;88.50
74809;DHT22;63338;39.544;2.596;2023-11-21T04:29:31;14.80;88.30
74809;DHT22;63338;39.544;2.596;2023-11-21T04:31:57;14.90;88.00
74809;DHT22;63338;39.544;2.596;2023-11-21T04:34:23;14.90;87.70
74809;DHT22;63338;39.544;2.596;2023-11-21T04:36:50;15.00;87.50
74809;DHT22;63338;39.544;2.596;2023-11-21T04:39:16;15.00;87.20
74809;DHT22;63338;39.544;2.596;2023-11-21T04:41:42;15.00;87.10
74809;DHT22;63338;39.544;2.596;2023-11-21T04:44:08;15.00;87.10
74809;DHT22;63338;39.544;2.596;2023-11-21T04:46:34;15.00;86.90
74809;DHT22;63338;39.544;2.596;2023-11-21T04:49:00;15.10;87.00
74809;DHT22;63338;39.544;2.596;2023-11-21T04:51:26;15.10;86.70
74809;DHT22;63338;39.544;2.596;2023-11-21T04:53:53;15.20;86.80
74809;DHT22;63338;39.544;2.596;2023-11-21T04:56:19;15.20;86.60
74809;DHT22;63338;39.544;2.596;2023-11-21T04:58:45;15.30;86.70
74809;DHT22;63338;39.544;2.596;2023-11-21T05:01:11;15.30;86.60
74809;DHT22;63338;39.544;2.596;2023-11-21T05:03:37;15.20;86.60
74809;DHT22;63338;39.544;2.596;2023-11-21T05:06:04;15.20;86.50
74809;DHT22;63338;39.544;2.596;2023-11-21T05:08:31;15.20;86.80
74809;DHT22;63338;39.544;2.596;2023-11-21T05:10:57;15.10;86.70
74809;DHT22;63338;39.544;2.596;2023-11-21T05:13:23;15.00;87.00
74809;DHT22;63338;39.544;2.596;2023-11-21T05:15:54;15.00;87.00
74809;DHT22;63338;39.544;2.596;2023-11-21T05:18:22;14.90;87.20
74809;DHT22;63338;39.544;2.596;2023-11-21T05:20:48;14.90;87.30
74809;DHT22;63338;39.544;2.596;2023-11-21T05:23:14;14.80;87.30
74809;DHT22;63338;39.544;2.596;2023-11-21T05:25:40;14.80;87.50
74809;DHT22;63338;39.544;2.596;2023-11-21T05:28:07;14.80;87.60
74809;DHT22;63338;39.544;2.596;2023-11-21T05:30:33;14.70;87.50
74809;DHT22;63338;39.544;2.596;2023-11-21T05:32:59;14.80;87.10
74809;DHT22;63338;39.544;2.596;2023-11-21T05:35:24;14.80;86.50
74809;DHT22;63338;39.544;2.596;2023-11-21T05:37:51;14.90;86.10
74809;DHT22;63338;39.544;2.596;2023-11-21T05:40:17;14.90;84.70
74809;DHT22;63338;39.544;2.596;2023-11-21T05:42:44;15.00;82.80
74809;DHT22;63338;39.544;2.596;2023-11-21T05:45:10;15.30;81.50
74809;DHT22;63338;39.544;2.596;2023-11-21T05:47:41;15.30;81.20
74809;DHT22;63338;39.544;2.596;2023-11-21T05:50:09;15.50;78.10
74809;DHT22;63338;39.544;2.596;2023-11-21T05:52:41;15.60;78.20
74809;DHT22;63338;39.544;2.596;2023-11-21T05:55:08;15.70;77.20
74809;DHT22;63338;39.544;2.596;2023-11-21T05:57:35;16.00;76.90
74809;DHT22;63338;39.544;2.596;2023-11-21T06:00:05;15.90;75.60
74809;DHT22;63338;39.544;2.596;2023-11-21T06:02:47;16.00;71.10
74809;DHT22;63338;39.544;2.596;2023-11-21T06:05:16;16.20;70.80
74809;DHT22;63338;39.544;2.596;2023-11-21T06:07:43;16.40;69.60
74809;DHT22;63338;39.544;2.596;2023-11-21T06:10:11;16.30;69.50
74809;DHT22;63338;39.544;2.596;2023-11-21T06:12:38;16.50;69.20
74809;DHT22;63338;39.544;2.596;2023-11-21T06:15:07;16.50;69.80
74809;DHT22;63338;39.544;2.596;2023-11-21T06:17:35;16.60;69.70
74809;DHT22;63338;39.544;2.596;2023-11-21T06:20:03;16.60;69.20
74809;DHT22;63338;39.544;2.596;2023-11-21T06:22:43;16.60;69.20
74809;DHT22;63338;39.544;2.596;2023-11-21T06:25:10;16.60;69.70
74809;DHT22;63338;39.544;2.596;2023-11-21T06:27:47;16.60;69.30
74809;DHT22;63338;39.544;2.596;2023-11-21T06:30:14;16.60;69.00
74809;DHT22;63338;39.544;2.596;2023-11-21T06:32:41;16.60;68.50
74809;DHT22;63338;39.544;2.596;2023-11-21T06:35:08;16.60;69.00
74809;DHT22;63338;39.544;2.596;2023-11-21T06:37:35;16.60;69.00
74809;DHT22;63338;39.544;2.596;2023-11-21T06:40:01;16.60;69.00
74809;DHT22;63338;39.544;2.596;2023-11-21T06:42:30;16.60;69.00
74809;DHT22;63338;39.544;2.596;2023-11-21T06:44:56;16.70;69.10
74809;DHT22;63338;39.544;2.596;2023-11-21T06:47:23;16.60;69.20
74809;DHT22;63338;39.544;2.596;2023-11-21T06:49:53;16.60;69.80
74809;DHT22;63338;39.544;2.596;2023-11-21T06:52:19;16.60;69.90
74809;DHT22;63338;39.544;2.596;2023-11-21T06:54:47;16.50;70.10
74809;DHT22;63338;39.544;2.596;2023-11-21T06:57:13;16.60;70.70
74809;DHT22;63338;39.544;2.596;2023-11-21T06:59:39;16.60;71.00
74809;DHT22;63338;39.544;2.596;2023-11-21T07:02:06;16.60;71.10
74809;DHT22;63338;39.544;2.596;2023-11-21T07:04:33;16.60;71.50
74809;DHT22;63338;39.544;2.596;2023-11-21T07:06:59;16.60;71.50
74809;DHT22;63338;39.544;2.596;2023-11-21T07:09:25;16.50;71.50
74809;DHT22;63338;39.544;2.596;2023-11-21T07:11:52;16.60;71.30
74809;DHT22;63338;39.544;2.596;2023-11-21T07:14:18;16.60;71.20
74809;DHT22;63338;39.544;2.596;2023-11-21T07:16:46;16.60;71.10
74809;DHT22;63338;39.544;2.596;2023-11-21T07:19:12;16.70;71.20
74809;DHT22;63338;39.544;2.596;2023-11-21T07:21:39;16.80;71.20
74809;DHT22;63338;39.544;2.596;2023-11-21T07:24:06;17.00;71.40
74809;DHT22;63338;39.544;2.596;2023-11-21T07:26:33;17.70;70.80
74809;DHT22;63338;39.544;2.596;2023-11-21T07:29:03;18.40;67.60
74809;DHT22;63338;39.544;2.596;2023-11-21T07:31:29;18.60;66.70
74809;DHT22;63338;39.544;2.596;2023-11-21T07:33:55;18.50;66.40
74809;DHT22;63338;39.544;2.596;2023-11-21T07:36:25;18.40;66.10
74809;DHT22;63338;39.544;2.596;2023-11-21T07:38:51;18.30;66.40
74809;DHT22;63338;39.544;2.596;2023-11-21T07:41:20;18.20;66.70
74809;DHT22;63338;39.544;2.596;2023-11-21T07:43:48;18.00;68.00
74809;DHT22;63338;39.544;2.596;2023-11-21T07:46:14;17.80;68.20
74809;DHT22;63338;39.544;2.596;2023-11-21T07:48:41;17.80;68.50
74809;DHT22;63338;39.544;2.596;2023-11-21T07:51:12;17.70;68.70
74809;DHT22;63338;39.544;2.596;2023-11-21T07:53:39;17.60;69.20
74809;DHT22;63338;39.544;2.596;2023-11-21T07:56:06;17.70;69.30
74809;DHT22;63338;39.544;2.596;2023-11-21T07:58:36;17.70;69.20
74809;DHT22;63338;39.544;2.596;2023-11-21T08:01:03;17.60;69.00
74809;DHT22;63338;39.544;2.596;2023-11-21T08:03:29;17.70;69.30
74809;DHT22;63338;39.544;2.596;2023-11-21T08:05:56;17.80;68.60
74809;DHT22;63338;39.544;2.596;2023-11-21T08:08:23;17.70;68.30
74809;DHT22;63338;39.544;2.596;2023-11-21T08:10:50;17.70;68.30
74809;DHT22;63338;39.544;2.596;2023-11-21T08:13:23;17.70;67.80
74809;DHT22;63338;39.544;2.596;2023-11-21T08:15:49;17.70;66.70
74809;DHT22;63338;39.544;2.596;2023-11-21T08:18:15;17.60;66.20
74809;DHT22;63338;39.544;2.596;2023-11-21T08:20:44;17.60;66.10
74809;DHT22;63338;39.544;2.596;2023-11-21T08:23:14;17.60;66.60
74809;DHT22;63338;39.544;2.596;2023-11-21T08:25:45;17.50;66.90
74809;DHT22;63338;39.544;2.596;2023-11-21T08:28:12;17.50;67.50
74809;DHT22;63338;39.544;2.596;2023-11-21T08:30:40;17.60;67.30
74809;DHT22;63338;39.544;2.596;2023-11-21T08:33:07;17.70;67.50
74809;DHT22;63338;39.544;2.596;2023-11-21T08:35:35;18.00;66.40
74809;DHT22;63338;39.544;2.596;2023-11-21T08:38:02;18.60;64.90
74809;DHT22;63338;39.544;2.596;2023-11-21T08:40:28;19.50;63.10
74809;DHT22;63338;39.544;2.596;2023-11-21T08:42:54;20.50;61.90
74809;DHT22;63338;39.544;2.596;2023-11-21T08:45:24;21.70;59.20
74809;DHT22;63338;39.544;2.596;2023-11-21T08:47:51;22.60;57.50
74809;DHT22;63338;39.544;2.596;2023-11-21T08:50:17;23.60;55.90
74809;DHT22;63338;39.544;2.596;2023-11-21T08:52:44;24.50;53.70
74809;DHT22;63338;39.544;2.596;2023-11-21T08:55:11;24.90;52.10
74809;DHT22;63338;39.544;2.596;2023-11-21T08:57:39;25.30;51.80
74809;DHT22;63338;39.544;2.596;2023-11-21T09:00:07;25.30;50.80
74809;DHT22;63338;39.544;2.596;2023-11-21T09:02:38;25.00;51.30
74809;DHT22;63338;39.544;2.596;2023-11-21T09:05:08;24.70;51.60
74809;DHT22;63338;39.544;2.596;2023-11-21T09:07:35;24.30;52.80
74809;DHT22;63338;39.544;2.596;2023-11-21T09:10:05;24.20;53.10
74809;DHT22;63338;39.544;2.596;2023-11-21T09:12:37;24.60;52.80
74809;DHT22;63338;39.544;2.596;2023-11-21T09:15:05;24.60;53.10
74809;DHT22;63338;39.544;2.596;2023-11-21T09:17:32;24.10;53.30
74809;DHT22;63338;39.544;2.596;2023-11-21T09:19:58;23.60;54.80
74809;DHT22;63338;39.544;2.596;2023-11-21T09:22:24;23.10;55.50
74809;DHT22;63338;39.544;2.596;2023-11-21T09:24:53;22.60;56.30
74809;DHT22;63338;39.544;2.596;2023-11-21T09:27:19;21.80;57.00
74809;DHT22;63338;39.544;2.596;2023-11-21T09:29:47;21.40;57.70
74809;DHT22;63338;39.544;2.596;2023-11-21T09:32:14;21.00;58.20
74809;DHT22;63338;39.544;2.596;2023-11-21T09:34:42;20.50;60.40
74809;DHT22;63338;39.544;2.596;2023-11-21T09:37:09;20.40;60.90
74809;DHT22;63338;39.544;2.596;2023-11-21T09:39:35;20.00;60.90
74809;DHT22;63338;39.544;2.596;2023-11-21T09:42:15;19.50;61.90
74809;DHT22;63338;39.544;2.596;2023-11-21T09:45:02;19.40;62.60
74809;DHT22;63338;39.544;2.596;2023-11-21T09:47:30;19.30;62.60
74809;DHT22;63338;39.544;2.596;2023-11-21T09:50:00;19.10;63.50
74809;DHT22;63338;39.544;2.596;2023-11-21T09:52:28;18.90;63.80
74809;DHT22;63338;39.544;2.596;2023-11-21T09:54:55;18.90;64.00
74809;DHT22;63338;39.544;2.596;2023-11-21T09:57:25;18.70;64.20
74809;DHT22;63338;39.544;2.596;2023-11-21T09:59:52;18.60;64.50
74809;DHT22;63338;39.544;2.596;2023-11-21T10:02:25;18.60;64.80
74809;DHT22;63338;39.544;2.596;2023-11-21T10:04:52;18.60;65.00
74809;DHT22;63338;39.544;2.596;2023-11-21T10:07:19;18.70;65.10
74809;DHT22;63338;39.544;2.596;2023-11-21T10:09:47;18.80;65.60
74809;DHT22;63338;39.544;2.596;2023-11-21T10:12:15;19.10;65.20
74809;DHT22;63338;39.544;2.596;2023-11-21T10:14:43;19.30;65.00
74809;DHT22;63338;39.544;2.596;2023-11-21T10:17:14;19.60;64.90
74809;DHT22;63338;39.544;2.596;2023-11-21T10:19:53;19.90;63.80
74809;DHT22;63338;39.544;2.596;2023-11-21T10:22:20;20.20;63.80
74809;DHT22;63338;39.544;2.596;2023-11-21T10:24:46;20.90;61.70
74809;DHT22;63338;39.544;2.596;2023-11-21T10:27:13;21.80;60.20
74809;DHT22;63338;39.544;2.596;2023-11-21T10:29:42;22.80;58.50
74809;DHT22;63338;39.544;2.596;2023-11-21T10:32:08;23.90;56.40
74809;DHT22;63338;39.544;2.596;2023-11-21T10:34:34;24.90;54.70
74809;DHT22;63338;39.544;2.596;2023-11-21T10:37:12;25.90;53.40
74809;DHT22;63338;39.544;2.596;2023-11-21T10:39:39;26.70;51.20
74809;DHT22;63338;39.544;2.596;2023-11-21T10:42:08;27.10;49.00
74809;DHT22;63338;39.544;2.596;2023-11-21T10:44:35;27.40;48.70
74809;DHT22;63338;39.544;2.596;2023-11-21T10:47:02;27.70;48.30
74809;DHT22;63338;39.544;2.596;2023-11-21T10:49:28;27.90;47.80
74809;DHT22;63338;39.544;2.596;2023-11-21T10:51:54;28.20;47.80
74809;DHT22;63338;39.544;2.596;2023-11-21T10:54:25;28.40;47.10
74809;DHT22;63338;39.544;2.596;2023-11-21T10:56:57;28.60;47.00
74809;DHT22;63338;39.544;2.596;2023-11-21T10:59:28;28.50;46.90
74809;DHT22;63338;39.544;2.596;2023-11-21T11:01:57;28.60;46.40
74809;DHT22;63338;39.544;2.596;2023-11-21T11:04:26;28.80;45.80
74809;DHT22;63338;39.544;2.596;2023-11-21T11:06:58;28.80;45.90
74809;DHT22;63338;39.544;2.596;2023-11-21T11:09:27;28.90;46.00
74809;DHT22;63338;39.544;2.596;2023-11-21T11:11:54;29.10;45.00
74809;DHT22;63338;39.544;2.596;2023-11-21T11:14:20;29.30;44.10
74809;DHT22;63338;39.544;2.596;2023-11-21T11:16:54;29.40;44.20
74809;DHT22;63338;39.544;2.596;2023-11-21T11:19:21;29.50;44.10
74809;DHT22;63338;39.544;2.596;2023-11-21T11:24:51;28.30;45.60
74809;DHT22;63338;39.544;2.596;2023-11-21T11:36:17;24.70;50.10
74809;DHT22;63338;39.544;2.596;2023-11-21T11:38:47;23.90;51.30
74809;DHT22;63338;39.544;2.596;2023-11-21T11:41:29;23.50;52.80
74809;DHT22;63338;39.544;2.596;2023-11-21T11:43:56;23.10;53.90
74809;DHT22;63338;39.544;2.596;2023-11-21T11:46:43;23.00;54.10
74809;DHT22;63338;39.544;2.596;2023-11-21T11:49:11;23.00;54.10
74809;DHT22;63338;39.544;2.596;2023-11-21T11:54:55;23.50;53.60
74809;DHT22;63338;39.544;2.596;2023-11-21T11:57:24;24.10;52.40
74809;DHT22;63338;39.544;2.596;2023-11-21T12:00:11;24.80;51.20
74809;DHT22;63338;39.544;2.596;2023-11-21T12:02:40;25.50;51.10
74809;DHT22;63338;39.544;2.596;2023-11-21T12:05:17;26.00;50.50
74809;DHT22;63338;39.544;2.596;2023-11-21T12:07:51;26.30;50.30
74809;DHT22;63338;39.544;2.596;2023-11-21T12:10:21;26.60;48.70
74809;DHT22;63338;39.544;2.596;2023-11-21T12:12:53;26.60;50.00
74809;DHT22;63338;39.544;2.596;2023-11-21T12:15:19;26.70;49.90
74809;DHT22;63338;39.544;2.596;2023-11-21T12:17:46;26.40;49.00
74809;DHT22;63338;39.544;2.596;2023-11-21T12:20:13;25.80;50.50
74809;DHT22;63338;39.544;2.596;2023-11-21T12:22:47;25.20;51.20
74809;DHT22;63338;39.544;2.596;2023-11-21T12:25:22;24.60;52.40
74809;DHT22;63338;39.544;2.596;2023-11-21T12:27:49;23.90;52.70
74809;DHT22;63338;39.544;2.596;2023-11-21T12:30:21;23.30;54.70
74809;DHT22;63338;39.544;2.596;2023-11-21T12:32:51;22.90;54.60
74809;DHT22;63338;39.544;2.596;2023-11-21T12:35:19;22.50;56.10
74809;DHT22;63338;39.544;2.596;2023-11-21T12:37:45;22.30;56.10
74809;DHT22;63338;39.544;2.596;2023-11-21T12:40:13;22.10;56.60
74809;DHT22;63338;39.544;2.596;2023-11-21T12:42:42;22.00;57.10
74809;DHT22;63338;39.544;2.596;2023-11-21T12:47:44;21.80;57.60
74809;DHT22;63338;39.544;2.596;2023-11-21T12:50:19;21.80;58.10
74809;DHT22;63338;39.544;2.596;2023-11-21T12:52:50;21.70;58.20
74809;DHT22;63338;39.544;2.596;2023-11-21T12:55:23;21.50;58.20
74809;DHT22;63338;39.544;2.596;2023-11-21T12:57:55;21.40;57.90
74809;DHT22;63338;39.544;2.596;2023-11-21T13:00:48;21.30;58.10
74809;DHT22;63338;39.544;2.596;2023-11-21T13:03:16;21.10;57.80
74809;DHT22;63338;39.544;2.596;2023-11-21T13:05:46;20.90;56.90
74809;DHT22;63338;39.544;2.596;2023-11-21T13:08:14;21.00;56.90
74809;DHT22;63338;39.544;2.596;2023-11-21T13:10:45;21.30;57.70
74809;DHT22;63338;39.544;2.596;2023-11-21T13:13:13;21.30;57.80
74809;DHT22;63338;39.544;2.596;2023-11-21T13:15:52;21.20;58.10
74809;DHT22;63338;39.544;2.596;2023-11-21T13:18:18;21.20;57.60
74809;DHT22;63338;39.544;2.596;2023-11-21T13:20:47;21.40;57.00
74809;DHT22;63338;39.544;2.596;2023-11-21T13:23:13;21.40;57.10
74809;DHT22;63338;39.544;2.596;2023-11-21T13:25:45;21.30;56.30
74809;DHT22;63338;39.544;2.596;2023-11-21T13:28:13;21.00;56.10
74809;DHT22;63338;39.544;2.596;2023-11-21T13:30:41;20.90;56.70
74809;DHT22;63338;39.544;2.596;2023-11-21T13:33:08;21.20;56.30
74809;DHT22;63338;39.544;2.596;2023-11-21T13:35:37;21.20;56.00
74809;DHT22;63338;39.544;2.596;2023-11-21T13:38:10;21.20;55.90
74809;DHT22;63338;39.544;2.596;2023-11-21T13:40:37;21.10;56.10
74809;DHT22;63338;39.544;2.596;2023-11-21T13:43:16;21.00;56.50
74809;DHT22;63338;39.544;2.596;2023-11-21T13:45:43;20.70;58.20
74809;DHT22;63338;39.544;2.596;2023-11-21T13:48:10;20.70;58.60
74809;DHT22;63338;39.544;2.596;2023-11-21T13:50:42;20.50;58.70
74809;DHT22;63338;39.544;2.596;2023-11-21T13:53:22;20.40;59.20
74809;DHT22;63338;39.544;2.596;2023-11-21T13:55:52;20.80;59.50
74809;DHT22;63338;39.544;2.596;2023-11-21T13:58:26;21.50;56.90
74809;DHT22;63338;39.544;2.596;2023-11-21T14:01:07;22.10;55.90
74809;DHT22;63338;39.544;2.596;2023-11-21T14:03:53;22.90;55.30
74809;DHT22;63338;39.544;2.596;2023-11-21T14:06:24;23.40;54.10
74809;DHT22;63338;39.544;2.596;2023-11-21T14:08:58;23.70;52.80
74809;DHT22;63338;39.544;2.596;2023-11-21T14:11:24;23.90;52.70
74809;DHT22;63338;39.544;2.596;2023-11-21T14:13:51;24.10;52.60
74809;DHT22;63338;39.544;2.596;2023-11-21T14:16:17;24.20;51.80
74809;DHT22;63338;39.544;2.596;2023-11-21T14:18:44;24.30;51.80
74809;DHT22;63338;39.544;2.596;2023-11-21T14:21:24;24.30;52.00
74809;DHT22;63338;39.544;2.596;2023-11-21T14:23:50;24.20;52.20
74809;DHT22;63338;39.544;2.596;2023-11-21T14:26:16;24.00;52.00
74809;DHT22;63338;39.544;2.596;2023-11-21T14:28:43;23.90;51.80
74809;DHT22;63338;39.544;2.596;2023-11-21T14:31:09;23.70;52.40
74809;DHT22;63338;39.544;2.596;2023-11-21T14:33:39;23.40;53.30
74809;DHT22;63338;39.544;2.596;2023-11-21T14:36:06;23.00;53.90
74809;DHT22;63338;39.544;2.596;2023-11-21T14:38:36;22.60;54.40
74809;DHT22;63338;39.544;2.596;2023-11-21T14:41:08;22.30;55.20
74809;DHT22;63338;39.544;2.596;2023-11-21T14:43:37;22.00;56.00
74809;DHT22;63338;39.544;2.596;2023-11-21T14:46:04;21.70;56.20
74809;DHT22;63338;39.544;2.596;2023-11-21T14:48:36;21.60;56.30
74809;DHT22;63338;39.544;2.596;2023-11-21T14:51:09;21.40;56.50
74809;DHT22;63338;39.544;2.596;2023-11-21T14:53:41;21.20;56.70
74809;DHT22;63338;39.544;2.596;2023-11-21T14:56:22;21.10;57.00
74809;DHT22;63338;39.544;2.596;2023-11-21T14:58:55;20.70;58.90
74809;DHT22;63338;39.544;2.596;2023-11-21T15:01:26;20.50;59.30
74809;DHT22;63338;39.544;2.596;2023-11-21T15:04:11;20.40;59.50
74809;DHT22;63338;39.544;2.596;2023-11-21T15:06:55;20.10;60.00
74809;DHT22;63338;39.544;2.596;2023-11-21T15:09:24;20.00;60.40
74809;DHT22;63338;39.544;2.596;2023-11-21T15:12:02;19.80;60.60
74809;DHT22;63338;39.544;2.596;2023-11-21T15:14:50;19.80;60.90
74809;DHT22;63338;39.544;2.596;2023-11-21T15:17:20;19.70;61.30
74809;DHT22;63338;39.544;2.596;2023-11-21T15:19:50;19.60;60.70
74809;DHT22;63338;39.544;2.596;2023-11-21T15:22:16;19.70;60.80
74809;DHT22;63338;39.544;2.596;2023-11-21T15:24:43;19.50;61.10
74809;DHT22;63338;39.544;2.596;2023-11-21T15:27:13;19.50;61.10
74809;DHT22;63338;39.544;2.596;2023-11-21T15:29:39;19.30;61.60
74809;DHT22;63338;39.544;2.596;2023-11-21T15:32:07;19.30;61.90
74809;DHT22;63338;39.544;2.596;2023-11-21T15:34:37;19.20;62.30
74809;DHT22;63338;39.544;2.596;2023-11-21T15:37:04;19.20;62.00
74809;DHT22;63338;39.544;2.596;2023-11-21T15:39:31;19.10;62.20
74809;DHT22;63338;39.544;2.596;2023-11-21T15:41:58;19.10;62.50
74809;DHT22;63338;39.544;2.596;2023-11-21T15:44:27;19.00;62.40
74809;DHT22;63338;39.544;2.596;2023-11-21T15:46:54;19.00;62.30
74809;DHT22;63338;39.544;2.596;2023-11-21T15:49:20;18.90;62.30
74809;DHT22;63338;39.544;2.596;2023-11-21T15:51:48;18.80;61.60
74809;DHT22;63338;39.544;2.596;2023-11-21T15:54:24;18.70;61.80
74809;DHT22;63338;39.544;2.596;2023-11-21T15:56:52;18.60;62.30